createdAt,value
2022-08-14T00:02:04.846Z,72.57
2022-08-14T00:05:14.500Z,72.69
2022-08-14T00:08:17.891Z,72.69
2022-08-14T00:11:43.663Z,72.68
2022-08-14T00:14:47.353Z,72.73
2022-08-14T00:17:58.784Z,72.68
2022-08-14T00:21:02.011Z,72.74
2022-08-14T00:24:06.257Z,72.76
2022-08-14T00:27:12.606Z,72.75
2022-08-14T00:30:17.369Z,72.72
2022-08-14T00:33:20.507Z,72.76
2022-08-14T00:36:48.639Z,72.77
2022-08-14T00:39:52.593Z,72.71
2022-08-14T00:42:56.625Z,72.83
2022-08-14T00:46:09.081Z,72.81
2022-08-14T00:49:37.975Z,72.82
2022-08-14T00:52:50.949Z,72.86
2022-08-14T00:55:56.516Z,72.73
2022-08-14T00:58:59.861Z,72.85
2022-08-14T01:02:04.292Z,72.87
2022-08-14T01:05:07.772Z,72.88
2022-08-14T01:08:20.670Z,72.87
2022-08-14T01:11:36.120Z,72.90
2022-08-14T01:14:40.859Z,72.98
2022-08-14T01:18:02.397Z,72.98
2022-08-14T01:21:18.437Z,72.91
2022-08-14T01:24:24.823Z,72.98
2022-08-14T01:27:36.621Z,73.01
2022-08-14T01:30:59.449Z,73.02
2022-08-14T01:35:19.618Z,73.02
2022-08-14T01:37:28.873Z,73.01
2022-08-14T01:40:40.883Z,73.04
2022-08-14T01:43:56.371Z,72.99
2022-08-14T01:47:02.055Z,72.96
2022-08-14T01:50:10.180Z,72.97
2022-08-14T01:53:13.287Z,72.95
2022-08-14T01:56:18.856Z,72.87
2022-08-14T01:59:37.825Z,72.94
2022-08-14T02:02:42.611Z,72.90
2022-08-14T02:05:49.692Z,72.84
2022-08-14T02:08:55.259Z,72.89
2022-08-14T02:11:59.390Z,72.83
2022-08-14T02:15:04.917Z,72.87
2022-08-14T02:18:07.963Z,72.84
2022-08-14T02:21:12.577Z,72.80
2022-08-14T02:24:39.827Z,72.80
2022-08-14T02:28:24.890Z,72.85
2022-08-14T02:31:09.038Z,72.83
2022-08-14T02:34:27.451Z,72.88
2022-08-14T02:37:46.405Z,72.89
2022-08-14T02:40:51.850Z,72.88
2022-08-14T02:43:54.916Z,72.87
2022-08-14T02:47:04.228Z,72.90
2022-08-14T02:50:17.795Z,72.90
2022-08-14T02:53:21.036Z,72.96
2022-08-14T02:56:30.239Z,72.90
2022-08-14T02:59:50.239Z,72.98
2022-08-14T03:02:58.488Z,72.95
2022-08-14T03:06:02.479Z,72.96
2022-08-14T03:09:05.655Z,73.00
2022-08-14T03:12:08.836Z,72.98
2022-08-14T03:15:16.470Z,72.99
2022-08-14T03:18:31.387Z,73.04
2022-08-14T03:21:37.254Z,72.97
2022-08-14T03:24:40.408Z,73.08
2022-08-14T03:27:48.556Z,73.13
2022-08-14T03:31:01.870Z,73.07
2022-08-14T03:34:04.948Z,73.03
2022-08-14T03:37:38.762Z,73.06
2022-08-14T03:40:38.441Z,73.11
2022-08-14T03:43:42.272Z,73.12
2022-08-14T03:46:54.802Z,73.17
2022-08-14T03:49:59.774Z,73.21
2022-08-14T03:53:03.499Z,73.27
2022-08-14T03:56:08.051Z,73.21
2022-08-14T03:59:18.064Z,73.26
2022-08-14T04:02:46.853Z,73.25
2022-08-14T04:05:48.815Z,73.27
2022-08-14T04:08:53.389Z,73.27
2022-08-14T04:12:02.170Z,73.30
2022-08-14T04:15:10.917Z,73.34
2022-08-14T04:18:14.294Z,73.36
2022-08-14T04:21:24.556Z,73.36
2022-08-14T04:24:27.490Z,73.36
2022-08-14T04:27:30.798Z,73.38
2022-08-14T04:30:52.045Z,73.46
2022-08-14T04:33:55.564Z,73.44
2022-08-14T04:37:22.039Z,73.50
2022-08-14T04:40:46.121Z,73.60
2022-08-14T04:43:49.075Z,73.68
2022-08-14T04:47:17.173Z,73.65
2022-08-14T04:50:24.450Z,73.60
2022-08-14T04:53:43.174Z,73.63
2022-08-14T04:56:46.720Z,73.74
2022-08-14T04:59:50.787Z,73.77
2022-08-14T05:02:53.892Z,73.84
2022-08-14T05:06:00.026Z,73.85
2022-08-14T05:09:03.484Z,73.88
2022-08-14T05:13:14.049Z,73.92
2022-08-14T05:15:32.718Z,73.89
2022-08-14T05:19:17.800Z,73.90
2022-08-14T05:22:16.811Z,73.94
2022-08-14T05:25:22.021Z,73.94
2022-08-14T05:28:27.255Z,74.04
2022-08-14T05:31:39.724Z,74.16
2022-08-14T05:34:45.733Z,74.09
2022-08-14T05:37:50.144Z,74.08
2022-08-14T05:40:53.390Z,74.16
2022-08-14T05:43:57.048Z,74.17
2022-08-14T05:47:00.998Z,74.21
2022-08-14T05:50:04.289Z,74.20
2022-08-14T05:53:08.469Z,74.21
2022-08-14T05:56:11.713Z,74.17
2022-08-14T05:59:16.757Z,74.26
2022-08-14T06:02:21.832Z,74.30
2022-08-14T06:05:28.678Z,74.32
2022-08-14T06:08:36.327Z,74.27
2022-08-14T06:11:44.600Z,74.19
2022-08-14T06:14:52.895Z,74.30
2022-08-14T06:17:58.919Z,74.24
2022-08-14T06:21:04.056Z,74.36
2022-08-14T06:24:10.524Z,74.36
2022-08-14T06:27:21.824Z,74.35
2022-08-14T06:30:30.052Z,74.40
2022-08-14T06:35:01.542Z,74.45
2022-08-14T06:37:07.792Z,74.49
2022-08-14T06:40:26.257Z,74.50
2022-08-14T06:43:32.627Z,74.49
2022-08-14T06:46:37.299Z,74.52
2022-08-14T06:49:45.045Z,74.59
2022-08-14T06:52:52.088Z,74.57
2022-08-14T06:56:01.114Z,74.67
2022-08-14T06:59:05.955Z,74.66
2022-08-14T07:02:28.914Z,74.66
2022-08-14T07:05:55.368Z,74.63
2022-08-14T07:09:00.670Z,74.63
2022-08-14T07:12:03.970Z,74.75
2022-08-14T07:15:07.844Z,74.70
2022-08-14T07:18:12.177Z,74.72
2022-08-14T07:21:16.137Z,74.75
2022-08-14T07:24:26.521Z,74.75
2022-08-14T07:27:36.163Z,74.82
2022-08-14T07:30:50.653Z,74.79
2022-08-14T07:33:54.215Z,74.81
2022-08-14T07:37:00.710Z,74.85
2022-08-14T07:40:05.891Z,74.81
2022-08-14T07:43:14.494Z,74.80
2022-08-14T07:46:21.174Z,74.87
2022-08-14T07:49:34.437Z,74.94
2022-08-14T07:52:38.339Z,74.93
2022-08-14T07:55:42.980Z,74.92
2022-08-14T07:58:51.537Z,74.86
2022-08-14T08:01:57.390Z,74.81
2022-08-14T08:05:02.667Z,74.85
2022-08-14T08:08:08.425Z,74.87
2022-08-14T08:11:37.402Z,74.90
2022-08-14T08:14:55.780Z,74.97
2022-08-14T08:18:06.500Z,75.09
2022-08-14T08:21:11.274Z,75.10
2022-08-14T08:24:18.484Z,75.07
2022-08-14T08:27:23.779Z,75.21
2022-08-14T08:30:30.288Z,75.25
2022-08-14T08:33:39.162Z,75.33
2022-08-14T08:36:46.568Z,75.36
2022-08-14T08:40:01.486Z,75.47
2022-08-14T08:43:07.426Z,75.57
2022-08-14T08:46:18.523Z,75.72
2022-08-14T08:49:52.590Z,75.77
2022-08-14T08:53:06.875Z,75.72
2022-08-14T08:56:11.693Z,75.72
2022-08-14T08:59:34.308Z,75.68
2022-08-14T09:02:37.488Z,75.71
2022-08-14T09:05:56.245Z,75.59
2022-08-14T09:08:59.181Z,75.46
2022-08-14T09:12:03.351Z,75.61
2022-08-14T09:15:11.895Z,75.60
2022-08-14T09:18:18.520Z,75.61
2022-08-14T09:21:24.405Z,75.61
2022-08-14T09:24:35.317Z,75.56
2022-08-14T09:27:40.288Z,75.47
2022-08-14T09:30:47.863Z,75.49
2022-08-14T09:34:27.270Z,75.62
2022-08-14T09:37:43.678Z,75.56
2022-08-14T09:41:04.796Z,75.51
2022-08-14T09:44:28.198Z,75.69
2022-08-14T09:47:43.580Z,75.74
2022-08-14T09:50:52.949Z,75.65
2022-08-14T09:54:22.512Z,75.64
2022-08-14T09:57:28.929Z,75.48
2022-08-14T10:00:52.794Z,75.35
2022-08-14T10:03:57.404Z,75.02
2022-08-14T10:07:04.331Z,75.05
2022-08-14T10:10:23.402Z,74.93
2022-08-14T10:13:26.974Z,74.82
2022-08-14T10:16:53.872Z,74.76
2022-08-14T10:19:57.999Z,74.67
2022-08-14T10:23:20.419Z,74.70
2022-08-14T10:26:28.265Z,74.65
2022-08-14T10:29:41.066Z,74.82
2022-08-14T10:32:51.154Z,74.70
2022-08-14T10:35:56.334Z,74.66
2022-08-14T10:39:16.299Z,74.67
2022-08-14T10:42:21.204Z,74.74
2022-08-14T10:45:30.221Z,74.92
2022-08-14T10:48:43.401Z,75.01
2022-08-14T10:52:11.604Z,75.14
2022-08-14T10:55:19.484Z,75.16
2022-08-14T10:58:29.842Z,75.06
2022-08-14T11:01:41.382Z,75.29
2022-08-14T11:04:46.029Z,75.41
2022-08-14T11:07:55.416Z,75.51
2022-08-14T11:11:02.204Z,75.51
2022-08-14T11:14:09.426Z,75.53
2022-08-14T11:17:13.408Z,75.58
2022-08-14T11:20:19.390Z,75.71
2022-08-14T11:23:28.394Z,75.83
2022-08-14T11:26:45.011Z,75.80
2022-08-14T11:29:52.843Z,75.86
2022-08-14T11:33:05.390Z,75.96
2022-08-14T11:36:18.340Z,75.86
2022-08-14T11:39:34.609Z,75.78
2022-08-14T11:42:58.562Z,75.59
2022-08-14T11:46:03.766Z,75.49
2022-08-14T11:49:09.578Z,75.44
2022-08-14T11:52:15.910Z,75.45
2022-08-14T11:55:25.536Z,75.60
2022-08-14T11:58:34.793Z,75.74
2022-08-14T12:01:41.055Z,75.97
2022-08-14T12:04:51.453Z,76.25
2022-08-14T12:07:55.343Z,76.41
2022-08-14T12:10:58.810Z,76.39
2022-08-14T12:14:08.847Z,76.49
2022-08-14T12:17:47.630Z,76.33
2022-08-14T12:20:53.741Z,76.16
2022-08-14T12:24:08.473Z,76.15
2022-08-14T12:27:13.281Z,76.23
2022-08-14T12:30:56.650Z,76.05
2022-08-14T12:34:02.799Z,75.57
2022-08-14T12:37:13.172Z,75.27
2022-08-14T12:40:20.939Z,74.93
2022-08-14T12:43:24.052Z,74.40
2022-08-14T12:46:43.667Z,74.24
2022-08-14T12:49:54.329Z,74.30
2022-08-14T12:53:14.432Z,74.14
2022-08-14T12:56:33.000Z,74.17
2022-08-14T12:59:42.733Z,74.09
2022-08-14T13:02:55.383Z,73.90
2022-08-14T13:05:58.576Z,73.79
2022-08-14T13:09:11.113Z,73.49
2022-08-14T13:12:32.632Z,73.49
2022-08-14T13:15:40.430Z,73.44
2022-08-14T13:18:46.915Z,73.43
2022-08-14T13:22:05.011Z,73.45
2022-08-14T13:25:10.573Z,73.33
2022-08-14T13:28:33.808Z,73.00
2022-08-14T13:31:39.487Z,72.88
2022-08-14T13:34:46.041Z,72.50
2022-08-14T13:37:52.211Z,72.49
2022-08-14T13:40:56.100Z,72.46
2022-08-14T13:44:00.601Z,72.38
2022-08-14T13:47:06.998Z,71.98
2022-08-14T13:50:15.683Z,71.60
2022-08-14T13:53:24.783Z,71.63
2022-08-14T13:56:36.357Z,71.74
2022-08-14T13:59:46.532Z,71.65
2022-08-14T14:02:56.442Z,71.20
2022-08-14T14:06:02.428Z,70.75
2022-08-14T14:09:11.342Z,70.52
2022-08-14T14:12:37.396Z,70.24
2022-08-14T14:15:58.612Z,70.07
2022-08-14T14:19:09.173Z,70.19
2022-08-14T14:23:00.771Z,70.26
2022-08-14T14:25:48.516Z,70.45
2022-08-14T14:28:56.530Z,70.71
2022-08-14T14:32:01.072Z,70.99
2022-08-14T14:35:05.237Z,70.97
2022-08-14T14:38:10.036Z,70.76
2022-08-14T14:41:17.502Z,70.47
2022-08-14T14:44:23.640Z,70.40
2022-08-14T14:47:27.243Z,70.02
2022-08-14T14:50:34.443Z,69.55
2022-08-14T14:53:42.515Z,69.30
2022-08-14T14:56:52.425Z,69.05
2022-08-14T14:59:57.553Z,68.89
2022-08-14T15:03:01.650Z,68.75
2022-08-14T15:06:05.462Z,68.86
2022-08-14T15:09:09.074Z,68.58
2022-08-14T15:12:34.814Z,68.46
2022-08-14T15:15:37.309Z,68.55
2022-08-14T15:18:46.914Z,68.52
2022-08-14T15:21:52.211Z,68.56
2022-08-14T15:24:56.597Z,68.39
2022-08-14T15:28:00.974Z,68.26
2022-08-14T15:31:05.723Z,68.51
2022-08-14T15:34:45.654Z,68.71
2022-08-14T15:37:36.526Z,68.88
2022-08-14T15:40:51.524Z,68.75
2022-08-14T15:44:00.079Z,68.73
2022-08-14T15:47:07.287Z,68.78
2022-08-14T15:50:10.387Z,69.07
2022-08-14T15:53:13.442Z,69.05
2022-08-14T15:56:32.985Z,69.19
2022-08-14T15:59:58.731Z,69.18
2022-08-14T16:03:03.076Z,69.19
2022-08-14T16:06:10.824Z,69.17
2022-08-14T16:09:18.456Z,69.25
2022-08-14T16:12:41.857Z,69.49
2022-08-14T16:15:53.591Z,69.38
2022-08-14T16:18:58.945Z,69.40
2022-08-14T16:22:58.552Z,69.65
2022-08-14T16:25:34.284Z,69.81
2022-08-14T16:28:38.010Z,69.80
2022-08-14T16:31:43.785Z,69.85
2022-08-14T16:34:49.268Z,69.99
2022-08-14T16:37:55.706Z,69.94
2022-08-14T16:41:27.279Z,70.10
2022-08-14T16:44:40.992Z,70.34
2022-08-14T16:47:47.828Z,70.52
2022-08-14T16:50:53.507Z,70.46
2022-08-14T16:54:01.656Z,70.53
2022-08-14T16:57:32.468Z,70.72
2022-08-14T17:00:43.979Z,70.60
2022-08-14T17:04:14.882Z,70.65
2022-08-14T17:07:27.452Z,70.81
2022-08-14T17:10:36.112Z,70.76
2022-08-14T17:13:58.595Z,70.95
2022-08-14T17:17:04.264Z,71.05
2022-08-14T17:20:39.206Z,70.92
2022-08-14T17:23:35.225Z,71.19
2022-08-14T17:26:45.675Z,71.03
2022-08-14T17:29:56.720Z,71.29
2022-08-14T17:33:12.773Z,71.45
2022-08-14T17:36:25.079Z,71.39
2022-08-14T17:39:28.090Z,71.53
2022-08-14T17:42:51.839Z,71.53
2022-08-14T17:45:56.638Z,71.61
2022-08-14T17:49:16.350Z,71.61
2022-08-14T17:52:34.682Z,71.68
2022-08-14T17:56:01.867Z,71.75
2022-08-14T17:59:07.054Z,71.76
2022-08-14T18:02:16.490Z,71.77
2022-08-14T18:05:23.263Z,71.84
2022-08-14T18:08:33.586Z,71.85
2022-08-14T18:11:46.669Z,71.93
2022-08-14T18:14:52.790Z,72.10
2022-08-14T18:17:57.611Z,72.20
2022-08-14T18:21:23.906Z,72.18
2022-08-14T18:24:29.907Z,72.03
2022-08-14T18:27:43.494Z,71.95
2022-08-14T18:30:58.194Z,71.95
2022-08-14T18:34:12.304Z,71.85
2022-08-14T18:37:34.146Z,71.94
2022-08-14T18:40:40.243Z,71.96
2022-08-14T18:43:58.992Z,71.93
2022-08-14T18:47:15.135Z,72.02
2022-08-14T18:50:27.192Z,71.96
2022-08-14T18:53:57.005Z,71.99
2022-08-14T18:57:05.265Z,72.06
2022-08-14T19:00:33.819Z,72.18
2022-08-14T19:03:38.121Z,72.14
2022-08-14T19:06:45.008Z,72.29
2022-08-14T19:09:56.362Z,72.40
2022-08-14T19:13:04.861Z,72.48
2022-08-14T19:16:22.914Z,72.47
2022-08-14T19:19:41.209Z,72.63
2022-08-14T19:22:49.950Z,72.73
2022-08-14T19:26:01.424Z,72.75
2022-08-14T19:29:25.742Z,72.72
2022-08-14T19:32:31.921Z,72.84
2022-08-14T19:35:48.490Z,72.87
2022-08-14T19:39:02.032Z,72.94
2022-08-14T19:42:08.649Z,72.89
2022-08-14T19:45:14.815Z,73.03
2022-08-14T19:48:17.752Z,72.92
2022-08-14T19:51:21.863Z,72.97
2022-08-14T19:54:30.972Z,72.97
2022-08-14T19:57:33.908Z,72.96
2022-08-14T20:00:52.179Z,73.00
2022-08-14T20:04:00.431Z,72.93
2022-08-14T20:07:08.938Z,72.98
2022-08-14T20:11:06.403Z,72.93
2022-08-14T20:14:28.141Z,73.01
2022-08-14T20:17:33.303Z,72.93
2022-08-14T20:20:43.574Z,72.94
2022-08-14T20:23:48.206Z,73.03
2022-08-14T20:27:33.343Z,73.02
2022-08-14T20:30:38.058Z,73.02
2022-08-14T20:34:01.716Z,73.02
2022-08-14T20:37:22.089Z,72.93
2022-08-14T20:40:28.271Z,72.96
2022-08-14T20:43:53.249Z,72.88
2022-08-14T20:47:04.143Z,72.97
2022-08-14T20:50:28.178Z,72.94
2022-08-14T20:53:36.530Z,72.92
2022-08-14T20:56:44.912Z,72.94
2022-08-14T20:59:53.400Z,72.96
2022-08-14T21:03:29.201Z,72.92
2022-08-14T21:07:23.584Z,72.93
2022-08-14T21:10:33.758Z,72.71
2022-08-14T21:14:24.673Z,72.69
2022-08-14T21:17:06.139Z,72.53
2022-08-14T21:20:25.376Z,72.45
2022-08-14T21:23:35.904Z,72.45
2022-08-14T21:27:12.741Z,72.43
2022-08-14T21:30:51.045Z,72.39
2022-08-14T21:33:49.602Z,72.46
2022-08-14T21:37:09.850Z,72.57
2022-08-14T21:40:39.933Z,72.58
2022-08-14T21:43:45.901Z,72.51
2022-08-14T21:46:59.241Z,72.54
2022-08-14T21:50:56.435Z,72.47
2022-08-14T21:53:32.906Z,72.48
2022-08-14T21:56:41.571Z,72.44
2022-08-14T22:00:36.061Z,72.58
2022-08-14T22:03:38.591Z,72.50
2022-08-14T22:06:50.529Z,72.59
2022-08-14T22:09:55.297Z,72.56
2022-08-14T22:13:01.326Z,72.70
2022-08-14T22:16:05.014Z,72.74
2022-08-14T22:19:11.249Z,72.89
2022-08-14T22:22:17.009Z,72.89
2022-08-14T22:25:20.076Z,72.86
2022-08-14T22:28:32.644Z,73.01
2022-08-14T22:31:41.389Z,72.97
2022-08-14T22:34:48.515Z,73.01
2022-08-14T22:38:35.986Z,73.02
2022-08-14T22:41:26.691Z,73.02
2022-08-14T22:44:34.595Z,73.06
2022-08-14T22:47:40.789Z,73.06
2022-08-14T22:50:53.226Z,73.16
2022-08-14T22:53:59.180Z,73.14
2022-08-14T22:57:04.277Z,73.20
2022-08-14T23:00:25.061Z,73.23
2022-08-14T23:03:34.227Z,73.20
2022-08-14T23:07:02.902Z,73.24
2022-08-14T23:10:32.398Z,73.21
2022-08-14T23:13:24.719Z,73.36
2022-08-14T23:16:27.827Z,73.48
2022-08-14T23:19:33.557Z,73.48
2022-08-14T23:22:41.628Z,73.39
2022-08-14T23:26:00.720Z,73.45
2022-08-14T23:29:12.928Z,73.37
2022-08-14T23:32:19.113Z,73.43
2022-08-14T23:35:27.052Z,73.50
2022-08-14T23:38:31.370Z,73.48
2022-08-14T23:41:46.427Z,73.48
2022-08-14T23:44:56.818Z,73.41
2022-08-14T23:48:01.433Z,73.43
2022-08-14T23:51:04.513Z,73.44
2022-08-14T23:54:47.469Z,73.41
2022-08-14T23:57:30.915Z,73.41
